RJSC/GAJ METAR and TAF weather

Enter ICAO airport designator
Station Type Date Time Source
RJSC METAR 2020/04/07 10:00 UTC NOAA

RJSC 071000Z VRB02KT 9999 FEW050 09/01 Q1012


Station Type Date Time Source
RJSC Decoded METAR 2020/04/07 10:00 UTC NOAA

Yamagata Airport, Japan (RJSC) 38-25N 140-22E 108M
Apr 07, 2020 - 06:00 AM EDT / 2020.04.07 1000 UTC
Wind: Variable at 2 MPH (2 KT):0
Visibility: greater than 7 mile(s):0
Sky conditions: mostly clear
Temperature: 48 F (9 C)
Dew Point: 33 F (1 C)
Relative Humidity: 57%
Pressure (altimeter): 29.88 in. Hg (1012 hPa)
ob: RJSC 071000Z VRB02KT 9999 FEW050 09/01 Q1012
cycle: 10

Station Type Date Time Source
RJSC TAF UTC NOAA

Error!

Example: see airport list